createdAt,value
2018-04-27T00:01:01.011Z,10.00
2018-04-27T00:03:29.278Z,10.04
2018-04-27T00:05:57.557Z,10.08
2018-04-27T00:08:25.827Z,10.15
2018-04-27T00:10:54.149Z,9.93
2018-04-27T00:13:23.209Z,10.02
2018-04-27T00:15:51.494Z,9.90
2018-04-27T00:18:19.797Z,9.80
2018-04-27T00:20:48.800Z,9.83
2018-04-27T00:23:17.259Z,9.84
2018-04-27T00:25:46.283Z,9.90
2018-04-27T00:28:14.557Z,9.96
2018-04-27T00:30:42.809Z,9.91
2018-04-27T00:33:11.137Z,10.05
2018-04-27T00:35:39.420Z,9.96
2018-04-27T00:38:07.922Z,10.06
2018-04-27T00:40:36.198Z,10.02
2018-04-27T00:43:04.450Z,10.00
2018-04-27T00:45:32.742Z,10.02
2018-04-27T00:48:01.022Z,10.10
2018-04-27T00:50:29.279Z,10.13
2018-04-27T00:53:14.590Z,9.95
2018-04-27T00:55:43.611Z,9.87
2018-04-27T00:58:12.637Z,10.04
2018-04-27T01:00:40.914Z,9.81
2018-04-27T01:03:11.690Z,9.81
2018-04-27T01:05:39.963Z,9.88
2018-04-27T01:08:08.237Z,9.95
2018-04-27T01:10:36.645Z,9.74
2018-04-27T01:13:04.917Z,9.73
2018-04-27T01:15:33.165Z,9.74
2018-04-27T01:18:02.197Z,9.30
2018-04-27T01:20:30.477Z,9.68
2018-04-27T01:22:58.750Z,9.57
2018-04-27T01:25:27.017Z,9.35
2018-04-27T01:27:55.301Z,9.47
2018-04-27T01:30:23.596Z,9.39
2018-04-27T01:32:51.845Z,9.27
2018-04-27T01:35:20.140Z,9.24
2018-04-27T01:37:48.378Z,9.19
2018-04-27T01:40:16.649Z,9.24
2018-04-27T01:42:44.902Z,9.12
2018-04-27T01:45:14.140Z,9.01
2018-04-27T01:47:42.394Z,8.89
2018-04-27T01:50:10.661Z,8.89
2018-04-27T01:52:38.919Z,9.23
2018-04-27T01:55:07.955Z,9.42
2018-04-27T01:57:36.221Z,9.36
2018-04-27T02:00:04.481Z,9.17
2018-04-27T02:02:32.761Z,8.99
2018-04-27T02:05:01.039Z,9.06
2018-04-27T02:07:29.333Z,9.16
2018-04-27T02:09:57.601Z,8.78
2018-04-27T02:12:25.873Z,8.99
2018-04-27T02:14:54.239Z,8.92
2018-04-27T02:17:22.517Z,8.54
2018-04-27T02:19:50.765Z,8.60
2018-04-27T02:22:19.823Z,8.60
2018-04-27T02:24:48.182Z,8.63
2018-04-27T02:27:16.792Z,8.64
2018-04-27T02:29:45.047Z,8.79
2018-04-27T02:32:13.349Z,8.75
2018-04-27T02:34:41.616Z,8.81
2018-04-27T02:37:09.862Z,8.76
2018-04-27T02:39:38.143Z,8.75
2018-04-27T02:42:06.411Z,8.63
2018-04-27T02:44:34.695Z,8.98
2018-04-27T02:47:02.971Z,8.98
2018-04-27T02:49:31.242Z,8.89
2018-04-27T02:51:59.565Z,8.90
2018-04-27T02:54:27.832Z,8.67
2018-04-27T02:56:56.116Z,8.58
2018-04-27T02:59:25.149Z,8.69
2018-04-27T03:01:53.411Z,8.89
2018-04-27T03:04:22.797Z,8.75
2018-04-27T03:06:51.825Z,8.48
2018-04-27T03:09:20.375Z,8.62
2018-04-27T03:11:49.393Z,8.62
2018-04-27T03:14:17.662Z,8.66
2018-04-27T03:16:45.958Z,8.63
2018-04-27T03:19:14.212Z,8.77
2018-04-27T03:21:42.596Z,8.58
2018-04-27T03:24:10.838Z,8.29
2018-04-27T03:26:39.944Z,8.21
2018-04-27T03:29:08.209Z,8.13
2018-04-27T03:31:37.238Z,8.59
2018-04-27T03:34:05.577Z,8.33
2018-04-27T03:36:34.680Z,8.50
2018-04-27T03:39:02.872Z,8.25
2018-04-27T03:41:31.133Z,8.14
2018-04-27T03:43:59.417Z,7.83
2018-04-27T03:46:27.699Z,8.00
2018-04-27T03:48:55.985Z,8.29
2018-04-27T03:51:24.253Z,7.91
2018-04-27T03:53:52.531Z,7.98
2018-04-27T03:56:20.804Z,8.28
2018-04-27T03:58:49.079Z,8.26
2018-04-27T04:01:34.899Z,7.91
2018-04-27T04:04:20.909Z,8.18
2018-04-27T04:06:49.951Z,7.99
2018-04-27T04:09:18.225Z,8.29
2018-04-27T04:11:46.477Z,8.20
2018-04-27T04:14:14.754Z,8.03
2018-04-27T04:16:43.042Z,7.73
2018-04-27T04:19:11.348Z,7.95
2018-04-27T04:21:39.614Z,8.05
2018-04-27T04:24:07.872Z,8.13
2018-04-27T04:26:36.150Z,8.21
2018-04-27T04:29:04.399Z,7.94
2018-04-27T04:31:32.821Z,8.03
2018-04-27T04:34:01.090Z,8.04
2018-04-27T04:36:30.127Z,8.17
2018-04-27T04:38:59.158Z,7.97
2018-04-27T04:41:27.497Z,7.90
2018-04-27T04:43:55.782Z,7.89
2018-04-27T04:46:24.815Z,8.01
2018-04-27T04:48:53.066Z,8.25
2018-04-27T04:51:21.358Z,8.33
2018-04-27T04:53:49.634Z,8.17
2018-04-27T04:56:17.906Z,8.01
2018-04-27T04:58:46.253Z,8.30
2018-04-27T05:01:14.837Z,8.36
2018-04-27T05:03:44.070Z,8.45
2018-04-27T05:06:12.552Z,8.44
2018-04-27T05:08:40.986Z,8.42
2018-04-27T05:11:09.300Z,8.60
2018-04-27T05:13:37.575Z,8.81
2018-04-27T05:16:05.829Z,9.19
2018-04-27T05:21:34.299Z,8.95
2018-04-27T05:24:03.449Z,8.79
2018-04-27T05:26:32.126Z,8.99
2018-04-27T05:29:00.411Z,8.98
2018-04-27T05:31:28.668Z,9.18
2018-04-27T05:33:56.987Z,9.13
2018-04-27T05:36:25.343Z,9.35
2018-04-27T05:38:53.628Z,9.44
2018-04-27T05:41:22.032Z,9.54
2018-04-27T05:43:50.806Z,9.57
2018-04-27T05:46:20.577Z,9.49
2018-04-27T05:48:48.840Z,9.32
2018-04-27T05:51:17.247Z,9.55
2018-04-27T05:53:45.588Z,9.61
2018-04-27T05:56:14.702Z,9.77
2018-04-27T05:58:43.489Z,9.66
2018-04-27T06:01:11.922Z,9.73
2018-04-27T06:03:59.305Z,9.80
2018-04-27T06:06:27.571Z,9.84
2018-04-27T06:08:55.921Z,9.96
2018-04-27T06:11:24.243Z,9.97
2018-04-27T06:13:52.501Z,10.10
2018-04-27T06:16:20.773Z,10.24
2018-04-27T06:18:49.061Z,10.24
2018-04-27T06:21:17.472Z,10.52
2018-04-27T06:23:50.505Z,10.46
2018-04-27T06:26:18.855Z,10.43
2018-04-27T06:28:48.947Z,10.60
2018-04-27T06:31:18.099Z,10.80
2018-04-27T06:33:46.429Z,10.85
2018-04-27T06:36:15.469Z,10.77
2018-04-27T06:38:43.781Z,11.08
2018-04-27T06:41:12.148Z,10.99
2018-04-27T06:43:40.795Z,11.15
2018-04-27T06:46:09.100Z,11.26
2018-04-27T06:48:37.439Z,11.34
2018-04-27T06:51:05.745Z,11.59
2018-04-27T06:53:33.997Z,11.88
2018-04-27T06:56:02.402Z,11.99
2018-04-27T06:58:30.687Z,12.03
2018-04-27T07:00:58.975Z,11.99
2018-04-27T07:03:27.324Z,11.97
2018-04-27T07:05:55.577Z,12.17
2018-04-27T07:08:24.046Z,12.47
2018-04-27T07:10:52.395Z,12.62
2018-04-27T07:13:21.681Z,12.76
2018-04-27T07:15:50.014Z,12.83
2018-04-27T07:18:18.291Z,12.86
2018-04-27T07:20:46.824Z,13.01
2018-04-27T07:23:15.883Z,13.17
2018-04-27T07:25:44.582Z,13.29
2018-04-27T07:28:12.866Z,13.16
2018-04-27T07:30:41.182Z,13.08
2018-04-27T07:33:09.487Z,13.10
2018-04-27T07:35:37.795Z,13.24
2018-04-27T07:38:06.134Z,13.42
2018-04-27T07:40:34.436Z,13.52
2018-04-27T07:43:02.718Z,13.53
2018-04-27T07:45:31.058Z,13.56
2018-04-27T07:47:59.322Z,13.65
2018-04-27T07:50:27.624Z,13.77
2018-04-27T07:52:55.993Z,13.89
2018-04-27T07:55:25.239Z,13.92
2018-04-27T07:57:53.650Z,13.99
2018-04-27T08:00:27.230Z,14.07
2018-04-27T08:02:56.384Z,13.95
2018-04-27T08:05:24.653Z,14.05
2018-04-27T08:07:52.963Z,14.09
2018-04-27T08:10:21.308Z,14.19
2018-04-27T08:12:49.600Z,14.23
2018-04-27T08:15:17.869Z,14.41
2018-04-27T08:17:46.496Z,14.39
2018-04-27T08:20:18.302Z,14.50
2018-04-27T08:22:47.347Z,14.65
2018-04-27T08:25:15.592Z,14.72
2018-04-27T08:27:44.645Z,14.90
2018-04-27T08:30:13.172Z,14.99
2018-04-27T08:32:41.472Z,15.13
2018-04-27T08:35:09.868Z,15.25
2018-04-27T08:37:38.142Z,15.40
2018-04-27T08:40:06.492Z,15.59
2018-04-27T08:42:35.576Z,15.57
2018-04-27T08:45:04.591Z,15.74
2018-04-27T08:47:33.051Z,15.55
2018-04-27T08:50:02.106Z,15.65
2018-04-27T08:52:30.469Z,15.73
2018-04-27T08:54:58.810Z,15.92
2018-04-27T08:57:27.068Z,15.77
2018-04-27T08:59:56.114Z,15.80
2018-04-27T09:02:24.585Z,15.82
2018-04-27T09:04:52.869Z,15.85
2018-04-27T09:07:21.163Z,16.09
2018-04-27T09:09:50.473Z,16.19
2018-04-27T09:12:18.806Z,16.53
2018-04-27T09:14:47.111Z,16.62
2018-04-27T09:17:15.372Z,16.73
2018-04-27T09:19:43.656Z,17.02
2018-04-27T09:22:12.010Z,17.35
2018-04-27T09:24:40.420Z,17.45
2018-04-27T09:27:08.858Z,17.53
2018-04-27T09:29:37.379Z,17.97
2018-04-27T09:32:05.639Z,18.33
2018-04-27T09:34:34.012Z,17.96
2018-04-27T09:37:02.375Z,18.02
2018-04-27T09:39:30.630Z,17.95
2018-04-27T09:41:58.923Z,18.35
2018-04-27T09:44:27.238Z,18.74
2018-04-27T09:46:55.941Z,19.25
2018-04-27T09:49:24.976Z,19.36
2018-04-27T09:51:53.465Z,18.97
2018-04-27T09:54:21.736Z,19.54
2018-04-27T09:56:50.023Z,20.01
2018-04-27T09:59:18.311Z,20.28
2018-04-27T10:01:46.610Z,19.50
2018-04-27T10:04:15.665Z,19.53
2018-04-27T10:06:43.981Z,20.21
2018-04-27T10:09:12.227Z,20.41
2018-04-27T10:11:40.527Z,20.83
2018-04-27T10:14:08.939Z,20.81
2018-04-27T10:16:37.205Z,20.71
2018-04-27T10:19:06.242Z,20.87
2018-04-27T10:21:34.885Z,21.48
2018-04-27T10:24:03.171Z,22.67
2018-04-27T10:26:31.421Z,23.34
2018-04-27T10:29:00.477Z,22.86
2018-04-27T10:31:28.749Z,23.14
2018-04-27T10:33:57.509Z,24.23
2018-04-27T10:36:25.826Z,23.87
2018-04-27T10:38:54.043Z,23.81
2018-04-27T10:41:22.364Z,24.29
2018-04-27T10:43:50.666Z,23.82
2018-04-27T10:46:19.703Z,24.28
2018-04-27T10:48:47.971Z,24.77
2018-04-27T10:51:16.288Z,24.56
2018-04-27T10:53:44.527Z,25.87
2018-04-27T10:56:12.851Z,25.67
2018-04-27T10:58:41.287Z,26.02
2018-04-27T11:01:09.565Z,26.02
2018-04-27T11:03:38.108Z,26.21
2018-04-27T11:06:07.249Z,26.42
2018-04-27T11:08:35.510Z,26.53
2018-04-27T11:11:03.902Z,26.31
2018-04-27T11:13:32.175Z,26.68
2018-04-27T11:16:00.626Z,25.12
2018-04-27T11:18:29.800Z,25.48
2018-04-27T11:20:58.859Z,27.13
2018-04-27T11:23:27.169Z,25.57
2018-04-27T11:25:56.212Z,25.79
2018-04-27T11:28:24.490Z,26.93
2018-04-27T11:30:52.767Z,26.76
2018-04-27T11:33:21.212Z,26.95
2018-04-27T11:35:49.517Z,27.21
2018-04-27T11:38:21.022Z,26.60
2018-04-27T11:40:49.430Z,25.69
2018-04-27T11:43:17.766Z,27.08
2018-04-27T11:45:46.026Z,27.06
2018-04-27T11:48:14.345Z,26.94
2018-04-27T11:50:43.391Z,27.34
2018-04-27T11:53:11.758Z,28.02
2018-04-27T11:55:39.971Z,27.59
2018-04-27T11:58:09.109Z,27.09
2018-04-27T12:00:37.488Z,27.36
2018-04-27T12:03:06.001Z,26.88
2018-04-27T12:05:34.334Z,25.60
2018-04-27T12:08:02.635Z,26.41
2018-04-27T12:10:31.008Z,27.36
2018-04-27T12:12:59.334Z,26.79
2018-04-27T12:15:28.325Z,27.52
2018-04-27T12:17:57.407Z,28.21
2018-04-27T12:20:25.687Z,26.67
2018-04-27T12:22:54.724Z,26.73
2018-04-27T12:25:23.075Z,26.64
2018-04-27T12:27:51.536Z,26.26
2018-04-27T12:30:19.826Z,27.01
2018-04-27T12:32:48.906Z,28.75
2018-04-27T12:35:18.102Z,27.20
2018-04-27T12:37:46.655Z,27.02
2018-04-27T12:40:14.915Z,26.17
2018-04-27T12:42:43.233Z,24.94
2018-04-27T12:45:12.356Z,24.51
2018-04-27T12:47:40.725Z,24.75
2018-04-27T12:50:09.409Z,24.92
2018-04-27T12:52:38.442Z,24.46
2018-04-27T12:55:06.722Z,24.13
2018-04-27T12:57:34.990Z,23.79
2018-04-27T13:00:03.279Z,23.17
2018-04-27T13:02:31.590Z,23.17
2018-04-27T13:05:00.612Z,23.09
2018-04-27T13:07:28.933Z,22.48
2018-04-27T13:09:57.290Z,22.64
2018-04-27T13:12:25.783Z,22.39
2018-04-27T13:14:54.069Z,22.32
2018-04-27T13:17:22.691Z,22.51
2018-04-27T13:19:51.503Z,22.58
2018-04-27T13:22:19.761Z,22.55
2018-04-27T13:24:48.034Z,22.37
2018-04-27T13:27:16.283Z,22.39
2018-04-27T13:29:45.375Z,22.46
2018-04-27T13:32:14.059Z,22.38
2018-04-27T13:34:43.145Z,22.37
2018-04-27T13:37:11.416Z,22.39
2018-04-27T13:39:40.481Z,22.45
2018-04-27T13:42:08.803Z,22.35
2018-04-27T13:44:37.880Z,22.50
2018-04-27T13:47:06.940Z,22.16
2018-04-27T13:49:35.213Z,22.27
2018-04-27T13:52:03.489Z,22.30
2018-04-27T13:54:31.887Z,22.42
2018-04-27T13:57:00.138Z,22.37
2018-04-27T13:59:28.474Z,22.29
2018-04-27T14:01:56.915Z,22.33
2018-04-27T14:04:25.228Z,22.43
2018-04-27T14:06:53.507Z,22.36
2018-04-27T14:09:22.840Z,22.61
2018-04-27T14:11:51.126Z,22.79
2018-04-27T14:14:19.400Z,22.91
2018-04-27T14:16:47.694Z,22.96
2018-04-27T14:19:16.216Z,22.90
2018-04-27T14:21:45.278Z,22.86
2018-04-27T14:24:13.539Z,22.88
2018-04-27T14:26:41.988Z,22.83
2018-04-27T14:29:10.259Z,22.68
2018-04-27T14:31:38.743Z,23.27
2018-04-27T14:34:07.014Z,23.12
2018-04-27T14:36:35.334Z,23.01
2018-04-27T14:39:03.712Z,23.05
2018-04-27T14:41:32.074Z,23.35
2018-04-27T14:44:00.464Z,23.66
2018-04-27T14:46:28.831Z,23.70
2018-04-27T14:48:57.859Z,24.25
2018-04-27T14:51:26.146Z,23.92
2018-04-27T14:53:54.450Z,23.85
2018-04-27T14:56:22.730Z,24.00
2018-04-27T14:58:52.610Z,23.52
2018-04-27T15:01:21.944Z,23.62
2018-04-27T15:03:50.213Z,23.54
2018-04-27T15:06:18.489Z,23.30
2018-04-27T15:08:52.429Z,22.94
2018-04-27T15:11:22.656Z,22.92
2018-04-27T15:13:50.955Z,23.20
2018-04-27T15:16:20.610Z,23.24
2018-04-27T15:18:49.170Z,23.16
2018-04-27T15:21:17.523Z,23.19
2018-04-27T15:23:46.621Z,23.03
2018-04-27T15:26:14.937Z,23.15
2018-04-27T15:28:44.141Z,23.10
2018-04-27T15:31:12.529Z,22.97
2018-04-27T15:33:41.120Z,22.90
2018-04-27T15:36:09.666Z,22.77
2018-04-27T15:38:37.936Z,22.69
2018-04-27T15:41:06.284Z,22.53
2018-04-27T15:43:35.991Z,22.40
2018-04-27T15:46:05.106Z,22.20
2018-04-27T15:48:33.389Z,22.17
2018-04-27T15:51:01.740Z,22.21
2018-04-27T15:53:31.092Z,22.11
2018-04-27T15:55:59.550Z,22.10
2018-04-27T15:58:27.828Z,22.19
2018-04-27T16:00:56.330Z,22.13
2018-04-27T16:03:24.830Z,22.02
2018-04-27T16:05:53.086Z,21.94
2018-04-27T16:08:21.515Z,21.91
2018-04-27T16:10:50.778Z,21.72
2018-04-27T16:13:54.448Z,21.63
2018-04-27T16:16:23.136Z,21.72
2018-04-27T16:18:52.132Z,21.66
2018-04-27T16:21:20.429Z,21.91
2018-04-27T16:23:48.677Z,22.23
2018-04-27T16:26:34.467Z,22.28
2018-04-27T16:29:02.768Z,22.09
2018-04-27T16:31:31.029Z,21.89
2018-04-27T16:33:59.298Z,21.73
2018-04-27T16:36:27.791Z,21.69
2018-04-27T16:38:56.774Z,21.67
2018-04-27T16:41:26.280Z,21.54
2018-04-27T16:44:01.848Z,21.62
2018-04-27T16:46:32.322Z,21.67
2018-04-27T16:49:01.340Z,21.52
2018-04-27T16:51:30.538Z,21.50
2018-04-27T16:53:59.719Z,21.40
2018-04-27T19:11:55.995Z,17.52
2018-04-27T19:14:24.693Z,17.36
2018-04-27T19:16:53.599Z,17.43
2018-04-27T19:19:23.116Z,17.30
2018-04-27T19:21:52.412Z,17.23
2018-04-27T19:24:21.710Z,17.22
2018-04-27T19:26:51.132Z,17.20
2018-04-27T19:29:20.722Z,17.00
2018-04-27T19:31:50.351Z,16.86
2018-04-27T19:34:18.915Z,16.82
2018-04-27T19:36:48.159Z,16.86
2018-04-27T19:39:16.777Z,16.67
2018-04-27T19:41:45.335Z,16.79
2018-04-27T19:44:14.836Z,16.66
2018-04-27T19:46:43.315Z,16.62
2018-04-27T19:49:11.907Z,16.48
2018-04-27T19:51:41.268Z,16.53
2018-04-27T19:54:09.865Z,16.52
2018-04-27T19:56:38.246Z,16.50
2018-04-27T19:59:06.969Z,16.49
2018-04-27T20:01:36.032Z,16.47
2018-04-27T20:04:04.451Z,16.30
2018-04-27T20:06:34.289Z,16.31
2018-04-27T20:09:02.731Z,16.41
2018-04-27T20:11:31.165Z,16.45
2018-04-27T20:13:59.632Z,16.50
2018-04-27T20:16:40.525Z,16.45
2018-04-27T20:19:09.833Z,16.44
2018-04-27T20:21:38.382Z,16.46
2018-04-27T20:24:07.678Z,16.63
2018-04-27T20:26:36.186Z,16.51
2018-04-27T20:29:05.095Z,16.50
2018-04-27T20:31:33.818Z,16.36
2018-04-27T20:34:03.188Z,16.38
2018-04-27T20:36:32.093Z,16.38
2018-04-27T20:39:01.580Z,16.35
2018-04-27T20:41:29.999Z,16.41
2018-04-27T20:43:59.358Z,16.53
2018-04-27T20:46:27.873Z,16.65
2018-04-27T20:48:57.634Z,16.66
2018-04-27T20:51:26.145Z,16.73
2018-04-27T20:54:03.330Z,16.71
2018-04-27T20:56:46.711Z,16.71
2018-04-27T20:59:16.543Z,16.58
2018-04-27T21:01:45.095Z,16.55
2018-04-27T21:04:18.555Z,16.35
2018-04-27T21:06:47.462Z,16.19
2018-04-27T21:09:16.086Z,16.15
2018-04-27T21:11:47.785Z,16.03
2018-04-27T21:14:16.161Z,15.99
2018-04-27T21:16:44.713Z,16.06
2018-04-27T21:19:13.644Z,16.13
2018-04-27T21:21:42.891Z,16.11
2018-04-27T21:24:11.485Z,16.14
2018-04-27T21:26:40.773Z,16.15
2018-04-27T21:29:09.133Z,16.04
2018-04-27T21:31:37.502Z,16.02
2018-04-27T21:34:06.211Z,16.10
2018-04-27T21:36:43.005Z,16.10
2018-04-27T21:39:15.949Z,16.07
2018-04-27T21:42:13.125Z,16.04
2018-04-27T21:44:44.708Z,15.92
2018-04-27T21:47:13.829Z,15.82
2018-04-27T21:49:42.754Z,15.85
2018-04-27T21:52:25.898Z,15.75
2018-04-27T21:54:54.246Z,15.55
2018-04-27T21:57:32.143Z,15.64
2018-04-27T22:00:05.968Z,15.58
2018-04-27T22:02:42.592Z,15.58
2018-04-27T22:08:43.026Z,15.68
2018-04-27T22:14:32.627Z,15.57
2018-04-27T22:17:08.857Z,15.67
2018-04-27T22:19:37.137Z,15.60
2018-04-27T22:22:05.485Z,15.57
2018-04-27T22:24:48.622Z,15.47
2018-04-27T22:27:16.921Z,15.42
2018-04-27T22:29:46.898Z,15.43
2018-04-27T22:32:23.128Z,15.42
2018-04-27T22:34:54.573Z,15.31
2018-04-27T22:37:23.006Z,15.27
2018-04-27T22:40:03.119Z,15.14
2018-04-27T22:42:45.629Z,15.14
2018-04-27T22:45:14.808Z,15.06
2018-04-27T22:47:50.157Z,15.02
2018-04-27T22:50:22.501Z,15.02
2018-04-27T22:52:53.435Z,15.15
2018-04-27T22:55:21.710Z,15.32
2018-04-27T22:58:07.681Z,15.33
2018-04-27T23:00:38.451Z,15.20
2018-04-27T23:03:17.446Z,15.20
2018-04-27T23:05:45.706Z,15.12
2018-04-27T23:08:14.019Z,15.22
2018-04-27T23:10:45.729Z,15.15
2018-04-27T23:13:24.663Z,14.99
2018-04-27T23:16:00.182Z,14.88
2018-04-27T23:18:43.401Z,14.75
2018-04-27T23:24:18.479Z,14.55
2018-04-27T23:27:01.834Z,14.47
2018-04-27T23:29:30.117Z,14.37
2018-04-27T23:31:58.369Z,14.48
2018-04-27T23:34:27.564Z,14.52
2018-04-27T23:36:58.770Z,14.29
2018-04-27T23:39:27.071Z,14.18
2018-04-27T23:41:55.320Z,14.14
2018-04-27T23:44:23.597Z,14.14
2018-04-27T23:46:51.900Z,14.16
2018-04-27T23:49:21.917Z,14.07
2018-04-27T23:51:51.069Z,13.96
2018-04-27T23:54:20.200Z,14.06
2018-04-27T23:56:50.118Z,14.03
2018-04-27T23:59:21.154Z,14.66
